Time;durP1;ratioP1;P1;durP2;ratioP2;P2;SDS_P1;SDS_P2;PMS_P1;PMS_P2;Temp;Humidity;BMP_temperature;BMP_pressure;BME280_temperature;BME280_humidity;BME280_pressure;Samples;Min_cycle;Max_cycle;Signal;HPM_P1;HPM_P2
2023/12/14 16:55:15;;;;;;;;;1.00;1.00;;;;;20.60;45.70;102388.25;5999001;23;46087;31
2023/12/14 16:57:40;;;;;;;;;1.67;1.67;;;;;20.58;45.78;102395.47;4912780;28;45473;-75
2023/12/14 17:00:06;;;;;;;;;2.67;0.67;;;;;20.58;45.86;102387.53;4917907;28;51761;-75
2023/12/14 17:02:32;;;;;;;;;0.67;0.67;;;;;20.62;45.66;102395.06;4919064;28;45501;-75
2023/12/14 17:04:59;;;;;;;;;2.00;0.67;;;;;20.62;45.83;102400.34;4918876;28;47350;-76
2023/12/14 17:07:24;;;;;;;;;0.67;0.67;;;;;20.62;45.94;102400.34;4919354;28;45348;-75
2023/12/14 17:09:50;;;;;;;;;0.67;0.67;;;;;20.45;45.86;102377.19;4920145;28;45642;-75
2023/12/14 17:12:15;;;;;;;;;1.33;1.33;;;;;20.63;45.55;102401.19;4919427;28;45339;-76
2023/12/14 17:14:41;;;;;;;;;0.67;0.67;;;;;20.62;45.74;102408.28;4919419;28;48735;-75
2023/12/14 17:17:06;;;;;;;;;3.67;1.33;;;;;20.58;45.74;102396.28;4919759;28;45417;-74
2023/12/14 17:19:32;;;;;;;;;2.00;1.67;;;;;20.62;45.57;102418.03;4919715;28;45498;-73
2023/12/14 17:21:58;;;;;;;;;1.33;0.67;;;;;20.61;45.64;102413.69;4919772;28;45298;-76
2023/12/14 17:24:24;;;;;;;;;0.67;0.67;;;;;20.61;45.44;102417.19;4919654;28;45400;-75
2023/12/14 17:26:49;;;;;;;;;0.67;0.67;;;;;20.61;45.55;102419.81;4919183;28;45469;-75
2023/12/14 17:29:14;;;;;;;;;1.67;1.67;;;;;20.38;45.81;102384.78;4919348;28;51976;-74
2023/12/14 17:31:39;;;;;;;;;2.33;1.00;;;;;20.60;45.35;102415.53;4919362;28;45362;-74
2023/12/14 17:34:05;;;;;;;;;2.67;1.00;;;;;20.62;45.43;102423.31;4919505;28;45387;-75
2023/12/14 17:36:30;;;;;;;;;1.33;1.33;;;;;20.61;45.44;102418.97;4919445;28;45345;-72
2023/12/14 17:38:56;;;;;;;;;2.33;1.33;;;;;20.59;45.48;102421.78;4919530;28;45403;-75
2023/12/14 17:41:21;;;;;;;;;0.67;0.67;;;;;20.60;45.40;102428.75;4919037;28;45415;-75
2023/12/14 17:43:47;;;;;;;;;0.33;0.33;;;;;20.61;45.37;102432.22;4919315;28;46461;-74
2023/12/14 17:46:14;;;;;;;;;1.67;1.00;;;;;20.61;45.52;102438.34;4919248;28;45338;-75
2023/12/14 17:48:40;;;;;;;;;0.67;0.67;;;;;20.56;45.37;102422.03;4919474;28;45376;-75
2023/12/14 17:51:06;;;;;;;;;1.33;0.33;;;;;20.59;45.53;102429.72;4919286;28;45448;-75
2023/12/14 17:53:32;;;;;;;;;1.33;1.33;;;;;20.60;45.51;102438.47;4919119;28;45376;-76
2023/12/14 17:55:58;;;;;;;;;2.33;0.67;;;;;20.61;45.75;102442.78;4918514;28;45338;-75
2023/12/14 17:58:23;;;;;;;;;3.67;1.67;;;;;20.61;45.67;102440.13;4918108;28;45525;-76
2023/12/14 18:00:49;;;;;;;;;1.33;1.33;;;;;20.55;45.32;102433.59;4919044;28;45387;-75
2023/12/14 18:03:14;;;;;;;;;1.00;1.00;;;;;20.60;45.36;102441.13;4918975;28;45991;-75
2023/12/14 18:05:39;;;;;;;;;1.00;1.00;;;;;20.57;45.65;102444.88;4918932;28;45301;-75
2023/12/14 18:08:05;;;;;;;;;1.00;0.67;;;;;20.44;45.40;102418.63;4933920;28;45395;-75
2023/12/14 18:10:30;;;;;;;;;1.00;1.00;;;;;20.60;45.23;102446.41;4918799;28;45367;-75
2023/12/14 18:12:58;;;;;;;;;1.00;1.00;;;;;20.58;45.80;102448.38;4918778;28;46385;-76
2023/12/14 18:15:24;;;;;;;;;1.33;1.33;;;;;20.60;45.97;102449.06;4918723;28;45573;-75
2023/12/14 18:17:49;;;;;;;;;1.33;1.33;;;;;20.60;45.77;102451.72;4918977;28;45346;-73
2023/12/14 18:20:15;;;;;;;;;1.67;1.67;;;;;20.58;45.24;102446.53;4918897;28;45460;-76
2023/12/14 18:22:40;;;;;;;;;2.00;1.00;;;;;20.60;45.51;102460.47;4918648;28;45411;-75
2023/12/14 18:25:06;;;;;;;;;0.67;0.67;;;;;20.60;45.35;102463.13;4932725;28;52755;-72
2023/12/14 18:27:32;;;;;;;;;1.67;1.67;;;;;20.60;45.69;102460.47;4918722;28;45453;-73
2023/12/14 18:29:57;;;;;;;;;0.50;0.50;;;;;20.52;45.34;102452.34;4918767;28;45343;-75
2023/12/14 18:32:23;;;;;;;;;0.67;0.67;;;;;20.58;45.34;102461.59;4918427;28;47015;-75
2023/12/14 18:34:48;;;;;;;;;2.33;1.00;;;;;20.59;45.56;102469.38;4918635;28;45375;-75
2023/12/14 18:37:14;;;;;;;;;1.67;1.00;;;;;20.58;45.48;102474.81;4918760;28;45336;-75
2023/12/14 18:39:43;;;;;;;;;0.67;0.67;;;;;20.49;45.29;102458.75;4918359;28;45348;-75
2023/12/14 18:42:11;;;;;;;;;0.67;0.67;;;;;20.57;45.27;102473.97;4918425;28;46205;-75
2023/12/14 18:44:36;;;;;;;;;2.00;2.00;;;;;20.56;45.40;102474.91;4918533;28;45426;-74
2023/12/14 18:47:02;;;;;;;;;2.00;1.00;;;;;20.53;45.66;102466.44;4918447;28;45377;-75
2023/12/14 18:49:27;;;;;;;;;2.33;1.67;;;;;20.57;45.49;102481.91;4918615;28;45336;-74
2023/12/14 18:51:53;;;;;;;;;5.33;2.67;;;;;20.55;45.44;102477.69;4918330;28;46938;-75
2023/12/14 18:54:19;;;;;;;;;1.33;1.33;;;;;20.54;45.47;102492.72;4918237;28;45370;-75
2023/12/14 18:56:44;;;;;;;;;0.67;0.67;;;;;20.48;45.80;102480.84;4917137;28;45527;-75
2023/12/14 18:59:09;;;;;;;;;1.67;1.67;;;;;20.57;45.38;102494.28;4918275;28;45566;-75
2023/12/14 19:01:35;;;;;;;;;0.67;0.67;;;;;20.57;45.69;102499.56;4917889;28;46934;-75
2023/12/14 19:04:01;;;;;;;;;2.33;1.67;;;;;20.57;45.33;102500.41;4918355;28;45387;-75
2023/12/14 19:06:28;;;;;;;;;2.67;2.67;;;;;20.57;45.54;102508.34;4918356;28;45464;-75
2023/12/14 19:08:54;;;;;;;;;0.67;0.67;;;;;20.57;45.53;102503.06;4919243;28;45497;-76
2023/12/14 19:11:19;;;;;;;;;2.67;2.67;;;;;20.56;45.34;102505.81;4921356;28;46162;-75
2023/12/14 19:13:45;;;;;;;;;2.67;2.33;;;;;20.54;45.54;102505.94;4921714;28;45373;-75
2023/12/14 19:16:11;;;;;;;;;1.67;1.67;;;;;20.57;45.45;102510.97;4921658;28;45415;-75
2023/12/14 19:18:37;;;;;;;;;2.33;2.00;;;;;20.53;45.64;102506.94;4921484;28;45315;-74
2023/12/14 19:21:02;;;;;;;;;1.67;1.67;;;;;20.57;45.47;102524.22;4921349;28;46280;-74
2023/12/14 19:23:28;;;;;;;;;1.67;1.67;;;;;20.50;45.72;102515.97;4921297;28;45375;-75
2023/12/14 19:25:57;;;;;;;;;1.00;1.00;;;;;20.58;45.12;102528.50;4921702;28;45352;-72
2023/12/14 19:28:23;;;;;;;;;1.67;1.67;;;;;20.44;45.50;102503.25;4921492;28;45631;-72
2023/12/14 19:30:49;;;;;;;;;1.33;1.33;;;;;20.58;45.90;102527.69;4921276;28;47002;-73
2023/12/14 19:33:14;;;;;;;;;2.33;0.67;;;;;20.57;45.77;102524.22;4921214;28;45355;-74
2023/12/14 19:35:40;;;;;;;;;4.00;3.00;;;;;20.57;45.78;102523.34;4908549;28;45446;-74
2023/12/14 19:38:05;;;;;;;;;4.00;1.67;;;;;20.57;45.96;102524.22;4903615;28;45398;-73
2023/12/14 19:40:30;;;;;;;;;1.00;1.00;;;;;20.48;45.70;102511.78;4909901;28;45467;-71
2023/12/14 19:42:56;;;;;;;;;2.67;1.67;;;;;20.57;46.27;102529.50;4909804;28;45569;-72
2023/12/14 19:45:21;;;;;;;;;1.67;1.67;;;;;20.58;46.28;102530.34;4934132;28;45328;-72
2023/12/14 19:47:46;;;;;;;;;1.67;1.67;;;;;20.57;45.86;102526.00;4920405;28;45566;-70
2023/12/14 19:50:12;;;;;;;;;1.67;1.67;;;;;20.60;46.09;102538.97;4920056;28;62302;-70
2023/12/14 19:52:38;;;;;;;;;2.00;2.00;;;;;20.61;46.15;102533.53;4911292;28;45505;-72
2023/12/14 19:55:06;;;;;;;;;1.67;0.67;;;;;20.56;46.17;102532.25;4913946;28;45445;-71
2023/12/14 19:57:31;;;;;;;;;2.67;2.67;;;;;20.62;46.25;102543.16;4912177;28;45168;-71
2023/12/14 19:59:56;;;;;;;;;1.67;1.67;;;;;20.65;46.36;102549.16;4920177;28;45530;-72
2023/12/14 20:02:22;;;;;;;;;1.67;1.67;;;;;20.59;46.53;102545.22;4920742;28;45269;-72
2023/12/14 20:04:47;;;;;;;;;2.33;2.33;;;;;20.60;45.94;102539.81;4919944;28;45473;-71
2023/12/14 20:07:13;;;;;;;;;0.67;0.67;;;;;20.65;46.39;102551.81;4920681;28;45249;-71
2023/12/14 20:09:38;;;;;;;;;1.67;1.67;;;;;20.64;46.59;102550.97;4908920;28;45443;-72
2023/12/14 20:12:04;;;;;;;;;2.00;2.00;;;;;20.69;46.24;102561.16;4922426;28;45470;-70
2023/12/14 20:14:29;;;;;;;;;2.67;1.67;;;;;20.70;46.25;102562.84;4928305;28;45349;-70
2023/12/14 20:16:55;;;;;;;;;2.33;2.33;;;;;20.71;46.49;102565.34;4909059;28;45525;-69
2023/12/14 20:19:21;;;;;;;;;2.00;2.00;;;;;20.71;46.25;102567.16;4920179;28;46041;-71
2023/12/14 20:21:46;;;;;;;;;2.00;1.67;;;;;20.73;46.54;102562.59;4918527;28;45422;-70
2023/12/14 20:24:11;;;;;;;;;1.67;1.67;;;;;20.73;46.38;102566.06;4934403;28;45338;-70
2023/12/14 20:26:37;;;;;;;;;2.00;2.00;;;;;20.75;46.45;102571.22;4918886;28;45327;-70
2023/12/14 20:29:03;;;;;;;;;4.67;2.67;;;;;20.72;46.71;102571.47;4924328;28;46329;-70
2023/12/14 20:31:28;;;;;;;;;2.67;2.67;;;;;20.78;46.52;102581.56;4925463;28;45397;-71
2023/12/14 20:33:54;;;;;;;;;2.67;2.00;;;;;20.79;46.45;102583.22;4920307;28;45455;-70
2023/12/14 20:36:19;;;;;;;;;1.00;1.00;;;;;20.70;46.74;102566.31;4920865;28;45534;-71
2023/12/14 20:38:45;;;;;;;;;0.67;0.67;;;;;20.79;46.33;102585.03;4922702;28;45432;-71
2023/12/14 20:41:13;;;;;;;;;3.00;3.00;;;;;20.78;46.63;102578.06;4924038;28;45342;-71
2023/12/14 20:43:38;;;;;;;;;3.67;2.00;;;;;20.77;46.51;102587.78;4915849;28;45347;-71
2023/12/14 20:46:04;;;;;;;;;2.67;1.67;;;;;20.77;46.46;102586.97;4933786;28;45420;-68
2023/12/14 20:48:29;;;;;;;;;3.33;1.67;;;;;20.79;46.82;102593.78;4919807;28;45688;-68
2023/12/14 20:50:54;;;;;;;;;1.67;1.33;;;;;20.81;46.68;102593.69;4918817;28;45463;-68
2023/12/14 20:53:20;;;;;;;;;4.00;4.00;;;;;20.82;47.05;102596.19;4919771;28;45404;-69
2023/12/14 20:55:45;;;;;;;;;4.67;1.67;;;;;20.82;46.63;102598.84;4916483;28;45511;-69
2023/12/14 20:58:12;;;;;;;;;1.00;1.00;;;;;20.83;46.60;102597.03;4928809;28;47246;-72
2023/12/14 21:00:38;;;;;;;;;1.67;1.67;;;;;20.84;47.00;102601.38;4920532;28;46998;-72
2023/12/14 21:03:03;;;;;;;;;4.00;3.00;;;;;20.86;47.13;102604.72;4908357;28;45452;-69
2023/12/14 21:05:28;;;;;;;;;2.67;2.67;;;;;20.88;46.70;102607.22;4920658;28;45360;-71
2023/12/14 21:07:54;;;;;;;;;2.00;2.00;;;;;20.79;46.64;102593.78;4918994;28;56434;-72
2023/12/14 21:10:19;;;;;;;;;4.00;2.00;;;;;20.91;47.25;102609.63;4905669;28;45512;-74
2023/12/14 21:12:45;;;;;;;;;3.67;3.67;;;;;20.90;47.12;102606.13;4921683;28;45853;-75
2023/12/14 21:15:10;;;;;;;;;3.00;3.00;;;;;20.92;46.79;102611.31;4919629;28;45376;-73
2023/12/14 21:17:35;;;;;;;;;6.00;3.33;;;;;20.92;47.27;102619.25;4918859;28;45961;-75
2023/12/14 21:20:01;;;;;;;;;3.67;3.67;;;;;20.84;47.05;102614.59;4921040;28;45529;-74
2023/12/14 21:22:26;;;;;;;;;3.00;3.00;;;;;20.93;47.04;102631.50;4906562;28;45304;-74
2023/12/14 21:25:00;;;;;;;;;5.00;3.00;;;;;20.91;46.98;102636.06;4922583;28;45486;-75
2023/12/14 21:27:44;;;;;;;;;3.00;3.00;;;;;20.94;46.94;102634.03;4918682;28;45523;-74
2023/12/14 21:30:15;;;;;;;;;4.00;4.00;;;;;20.96;47.01;102642.66;4917041;28;45567;-74
2023/12/14 21:32:44;;;;;;;;;4.00;3.00;;;;;20.96;47.28;102647.97;4918157;28;45416;-75
2023/12/14 21:35:10;;;;;;;;;4.00;4.00;;;;;20.92;47.17;102632.47;4920012;28;45318;-74
2023/12/14 21:37:35;;;;;;;;;4.00;2.00;;;;;20.98;47.32;102645.16;4918645;28;45474;-74
2023/12/14 21:40:01;;;;;;;;;5.00;4.00;;;;;20.96;47.00;102647.97;4918808;28;45357;-75
2023/12/14 21:42:26;;;;;;;;;4.33;4.33;;;;;20.99;47.30;102656.59;4917828;28;45324;-72
2023/12/14 21:44:52;;;;;;;;;3.33;2.67;;;;;20.87;47.27;102647.91;4917345;28;45371;-73
2023/12/14 21:47:18;;;;;;;;;3.67;3.67;;;;;20.99;46.94;102664.53;4923834;28;46779;-72
2023/12/14 21:49:43;;;;;;;;;5.67;4.00;;;;;20.99;47.26;102667.19;4917833;28;45499;-75
2023/12/14 21:52:08;;;;;;;;;4.00;4.00;;;;;20.98;47.23;102654.91;4918841;28;45309;-70
2023/12/14 21:54:34;;;;;;;;;4.00;3.00;;;;;20.87;47.11;102638.13;4918630;28;45307;-72
2023/12/14 21:56:59;;;;;;;;;4.00;4.00;;;;;20.87;46.96;102634.66;4917874;28;46281;-72
2023/12/14 21:59:24;;;;;;;;;4.67;4.67;;;;;21.00;47.42;102653.81;4918789;28;48922;-70
2023/12/14 22:01:50;;;;;;;;;4.00;4.00;;;;;20.93;47.07;102640.28;4907404;28;45303;-72
2023/12/14 22:04:15;;;;;;;;;4.00;4.00;;;;;21.00;47.35;102660.94;4918398;28;45312;-70
2023/12/14 22:06:40;;;;;;;;;3.00;3.00;;;;;20.98;46.92;102653.09;4908553;28;45976;-72
2023/12/14 22:09:05;;;;;;;;;3.00;3.00;;;;;20.99;47.19;102657.44;4918115;28;45539;-72
2023/12/14 22:11:31;;;;;;;;;2.33;2.33;;;;;21.00;47.16;102664.41;4914328;28;45409;-71
2023/12/14 22:13:56;;;;;;;;;4.00;4.00;;;;;21.00;47.54;102664.41;4905728;28;45451;-72
2023/12/14 22:16:21;;;;;;;;;6.67;5.00;;;;;20.92;47.76;102659.75;4929310;28;45511;-71
2023/12/14 22:18:47;;;;;;;;;3.33;3.33;;;;;21.00;47.54;102671.53;4917658;28;45495;-71
2023/12/14 22:21:12;;;;;;;;;4.33;4.00;;;;;21.00;47.37;102679.47;4920154;28;45474;-71
2023/12/14 22:23:37;;;;;;;;;4.00;4.00;;;;;21.00;47.09;102697.97;4918410;28;45311;-70
2023/12/14 22:26:03;;;;;;;;;3.33;3.00;;;;;20.98;47.54;102687.50;4918083;28;52465;-70
2023/12/14 22:28:28;;;;;;;;;3.00;2.67;;;;;20.99;47.14;102693.66;4920894;28;45444;-70
2023/12/14 22:30:53;;;;;;;;;5.00;3.67;;;;;21.00;47.10;102692.69;4904519;28;52342;-70
2023/12/14 22:33:19;;;;;;;;;4.33;3.00;;;;;20.91;47.17;102686.34;4917931;28;45534;-70
2023/12/14 22:35:44;;;;;;;;;3.00;3.00;;;;;20.94;47.09;102708.13;4918407;28;46030;-71
2023/12/14 22:38:09;;;;;;;;;3.00;2.67;;;;;21.00;47.54;102717.31;4922105;28;45398;-70
2023/12/14 22:40:35;;;;;;;;;4.33;4.00;;;;;20.99;47.51;102713.00;4918167;28;45388;-71
2023/12/14 22:43:00;;;;;;;;;4.00;2.67;;;;;20.99;47.29;102715.66;4912409;28;45462;-71
2023/12/14 22:45:25;;;;;;;;;4.00;3.00;;;;;20.94;47.41;102729.28;4910394;28;53031;-71
2023/12/14 22:47:53;;;;;;;;;4.00;3.00;;;;;20.93;47.69;102724.09;4905054;28;51475;-71
2023/12/14 22:50:22;;;;;;;;;2.00;2.00;;;;;20.69;47.11;102678.38;4918306;28;45435;-72
2023/12/14 22:52:48;;;;;;;;;3.33;2.33;;;;;20.98;47.18;102729.00;4912271;28;45374;-71
2023/12/14 22:55:14;;;;;;;;;4.67;4.00;;;;;20.96;47.60;102734.44;4916879;28;46294;-72
2023/12/14 22:57:41;;;;;;;;;5.00;4.00;;;;;20.96;47.32;102739.72;4917482;28;45305;-72
2023/12/14 23:00:11;;;;;;;;;3.00;3.00;;;;;20.96;47.43;102742.38;4917809;28;45293;-72
2023/12/14 23:02:40;;;;;;;;;3.00;3.00;;;;;20.95;47.42;102746.81;4917842;28;45414;-69
2023/12/14 23:05:06;;;;;;;;;5.00;3.00;;;;;20.69;47.78;102707.47;4900600;28;47344;-74
2023/12/14 23:07:31;;;;;;;;;3.00;3.00;;;;;20.94;47.69;102739.88;4918041;28;45386;-74
2023/12/14 23:09:57;;;;;;;;;4.00;3.67;;;;;20.99;47.79;102751.88;4918387;28;45454;-73
